Atwood, Kansas
Current Conditions -  °F | °C
As of 4:15 AM on Thursday 29 Jan 2015 (Local Time) from KCBK Reporting Station
Clear Clear  
Wind Chill: 21°   Ceiling: Unl
Heat Index: 32°   Visibility: 10mi
Dew Point: 32°   Wind: 16mph
Humidity: 100%   Direction: 330°NNW
Pressure: 30.33"   Gusts: NA
Location:  39.81°N, 101.04°W
Report Text: KCBK 291015Z AUTO 33014KT 10SM CLR 00/00 A3033 RMK AO2
Loading
Personal Weather Stations






























Interactive Weather Map New forecast layout! Learn more

10-Day Weather Forecast

Advertisements
Track Severe Weather on mobile